createdAt,value
2018-09-28T00:00:22.670Z,13.29
2018-09-28T00:01:22.648Z,13.38
2018-09-28T00:02:22.630Z,13.28
2018-09-28T00:03:22.615Z,13.38
2018-09-28T00:04:22.588Z,13.44
2018-09-28T00:05:22.570Z,13.32
2018-09-28T00:06:22.555Z,13.36
2018-09-28T00:07:22.533Z,13.39
2018-09-28T00:08:22.514Z,13.45
2018-09-28T00:09:22.498Z,13.45
2018-09-28T00:10:22.470Z,13.45
2018-09-28T00:11:22.456Z,13.49
2018-09-28T00:12:22.430Z,13.44
2018-09-28T00:13:22.411Z,13.33
2018-09-28T00:14:22.398Z,13.44
2018-09-28T00:15:22.375Z,13.42
2018-09-28T00:16:22.353Z,13.30
2018-09-28T00:17:22.331Z,13.30
2018-09-28T00:18:22.312Z,13.36
2018-09-28T00:19:22.292Z,13.29
2018-09-28T00:20:22.283Z,13.38
2018-09-28T00:21:22.257Z,13.29
2018-09-28T00:22:22.238Z,13.32
2018-09-28T00:23:22.216Z,13.42
2018-09-28T00:24:22.198Z,13.36
2018-09-28T00:25:22.173Z,13.39
2018-09-28T00:26:22.154Z,13.45
2018-09-28T00:27:22.133Z,13.45
2018-09-28T00:28:22.121Z,13.39
2018-09-28T00:29:22.098Z,13.49
2018-09-28T00:30:22.078Z,13.59
2018-09-28T00:31:22.062Z,13.54
2018-09-28T00:32:22.034Z,13.57
2018-09-28T00:33:22.014Z,13.57
2018-09-28T00:34:21.992Z,13.67
2018-09-28T00:35:21.977Z,13.59
2018-09-28T00:36:21.961Z,13.60
2018-09-28T00:37:21.935Z,13.62
2018-09-28T00:38:21.926Z,13.55
2018-09-28T00:39:21.899Z,13.55
2018-09-28T00:40:21.880Z,13.54
2018-09-28T00:41:21.860Z,13.52
2018-09-28T00:42:21.838Z,13.39
2018-09-28T00:43:21.813Z,13.42
2018-09-28T00:44:21.796Z,13.42
2018-09-28T00:45:21.779Z,13.36
2018-09-28T00:46:21.758Z,13.32
2018-09-28T00:47:21.738Z,13.28
2018-09-28T00:48:21.724Z,13.25
2018-09-28T00:49:21.699Z,13.19
2018-09-28T00:50:21.678Z,13.20
2018-09-28T00:51:21.658Z,13.15
2018-09-28T00:52:21.637Z,13.14
2018-09-28T00:53:21.625Z,13.19
2018-09-28T00:54:21.594Z,13.19
2018-09-28T00:55:21.575Z,13.23
2018-09-28T00:56:21.560Z,13.15
2018-09-28T00:57:21.536Z,13.14
2018-09-28T00:58:21.514Z,13.11
2018-09-28T00:59:21.497Z,13.03
2018-09-28T01:00:21.480Z,12.89
2018-09-28T01:01:21.460Z,12.89
2018-09-28T01:02:21.436Z,12.93
2018-09-28T01:03:21.420Z,12.79
2018-09-28T01:04:21.398Z,12.83
2018-09-28T01:05:21.385Z,12.77
2018-09-28T01:06:21.360Z,12.71
2018-09-28T01:07:21.333Z,12.67
2018-09-28T01:08:21.318Z,12.68
2018-09-28T01:09:21.293Z,12.59
2018-09-28T01:10:21.284Z,12.50
2018-09-28T01:11:21.261Z,12.53
2018-09-28T01:12:21.236Z,12.46
2018-09-28T01:13:21.212Z,12.42
2018-09-28T01:14:21.194Z,12.42
2018-09-28T01:15:21.172Z,12.35
2018-09-28T01:16:21.152Z,12.39
2018-09-28T01:17:21.131Z,12.19
2018-09-28T01:18:21.117Z,12.17
2018-09-28T01:19:21.094Z,12.32
2018-09-28T01:20:21.074Z,12.24
2018-09-28T01:21:21.054Z,12.20
2018-09-28T01:22:21.036Z,12.13
2018-09-28T01:23:21.014Z,12.07
2018-09-28T01:24:20.993Z,12.05
2018-09-28T01:25:20.972Z,12.01
2018-09-28T01:26:20.948Z,12.02
2018-09-28T01:27:20.928Z,12.12
2018-09-28T01:28:20.914Z,12.01
2018-09-28T01:29:20.890Z,11.88
2018-09-28T01:30:20.866Z,12.01
2018-09-28T01:31:20.849Z,11.90
2018-09-28T01:32:20.835Z,11.95
2018-09-28T01:33:20.810Z,11.82
2018-09-28T01:34:20.792Z,11.80
2018-09-28T01:35:20.764Z,11.86
2018-09-28T01:36:20.746Z,11.75
2018-09-28T01:37:20.722Z,11.80
2018-09-28T01:38:20.708Z,11.90
2018-09-28T01:39:20.688Z,11.76
2018-09-28T01:40:20.668Z,11.83
2018-09-28T01:41:20.642Z,11.82
2018-09-28T01:42:20.620Z,11.75
2018-09-28T01:43:20.603Z,11.83
2018-09-28T01:44:20.587Z,11.73
2018-09-28T01:45:20.562Z,11.78
2018-09-28T01:46:20.541Z,11.75
2018-09-28T01:47:20.522Z,11.73
2018-09-28T01:48:20.504Z,11.62
2018-09-28T01:49:20.478Z,11.67
2018-09-28T01:50:20.457Z,11.73
2018-09-28T01:51:20.435Z,11.60
2018-09-28T01:52:20.419Z,11.61
2018-09-28T01:53:20.395Z,11.67
2018-09-28T01:54:20.376Z,11.67
2018-09-28T01:55:20.357Z,11.65
2018-09-28T01:56:20.331Z,11.67
2018-09-28T01:57:20.315Z,11.64
2018-09-28T01:58:20.290Z,11.65
2018-09-28T01:59:20.272Z,11.69
2018-09-28T02:00:20.250Z,11.69
2018-09-28T02:01:20.231Z,11.57
2018-09-28T02:02:20.210Z,11.52
2018-09-28T02:03:20.189Z,11.58
2018-09-28T02:04:20.164Z,11.52
2018-09-28T02:05:20.144Z,11.47
2018-09-28T02:06:20.125Z,11.46
2018-09-28T02:07:20.106Z,11.47
2018-09-28T02:08:20.086Z,11.51
2018-09-28T02:09:20.063Z,11.40
2018-09-28T02:10:20.042Z,11.49
2018-09-28T02:11:20.022Z,11.44
2018-09-28T02:12:20.044Z,11.36
2018-09-28T02:13:19.979Z,11.33
2018-09-28T02:14:19.960Z,11.46
2018-09-28T02:15:19.938Z,11.54
2018-09-28T02:16:19.918Z,11.51
2018-09-28T02:17:19.895Z,11.46
2018-09-28T02:18:19.875Z,11.47
2018-09-28T02:19:19.860Z,11.57
2018-09-28T02:20:19.832Z,11.52
2018-09-28T02:21:19.812Z,11.35
2018-09-28T02:22:19.790Z,11.46
2018-09-28T02:23:19.774Z,11.35
2018-09-28T02:24:19.747Z,11.35
2018-09-28T02:25:19.725Z,11.27
2018-09-28T02:26:19.711Z,11.29
2018-09-28T02:27:19.687Z,11.33
2018-09-28T02:28:19.667Z,11.43
2018-09-28T02:29:19.646Z,11.47
2018-09-28T02:30:19.620Z,11.42
2018-09-28T02:31:19.603Z,11.47
2018-09-28T02:32:19.579Z,11.46
2018-09-28T02:33:19.560Z,11.44
2018-09-28T02:34:19.545Z,11.44
2018-09-28T02:35:19.518Z,11.46
2018-09-28T02:36:19.501Z,11.37
2018-09-28T02:37:19.479Z,11.32
2018-09-28T02:38:19.453Z,11.36
2018-09-28T02:39:19.434Z,11.44
2018-09-28T02:40:19.413Z,11.37
2018-09-28T02:41:19.391Z,11.49
2018-09-28T02:42:19.369Z,11.47
2018-09-28T02:43:19.349Z,11.52
2018-09-28T02:44:19.333Z,11.49
2018-09-28T02:45:19.311Z,11.55
2018-09-28T02:46:19.283Z,11.49
2018-09-28T02:47:19.273Z,11.47
2018-09-28T02:48:19.242Z,11.52
2018-09-28T02:49:19.223Z,11.52
2018-09-28T02:50:19.203Z,11.47
2018-09-28T02:51:19.179Z,11.44
2018-09-28T02:52:19.160Z,11.51
2018-09-28T02:53:19.140Z,11.49
2018-09-28T02:54:19.118Z,11.46
2018-09-28T02:55:19.095Z,11.47
2018-09-28T02:56:19.077Z,11.46
2018-09-28T02:57:19.051Z,11.44
2018-09-28T02:58:19.033Z,11.44
2018-09-28T02:59:19.012Z,11.49
2018-09-28T03:00:18.993Z,11.49
2018-09-28T03:01:18.971Z,11.47
2018-09-28T03:02:18.953Z,11.49
2018-09-28T03:03:18.928Z,11.44
2018-09-28T03:04:18.906Z,11.44
2018-09-28T03:05:18.885Z,11.40
2018-09-28T03:06:18.878Z,11.46
2018-09-28T03:07:18.841Z,11.44
2018-09-28T03:08:18.823Z,11.44
2018-09-28T03:09:18.800Z,11.47
2018-09-28T03:10:18.777Z,11.39
2018-09-28T03:11:18.758Z,11.35
2018-09-28T03:12:18.736Z,11.36
2018-09-28T03:13:18.719Z,11.25
2018-09-28T03:14:18.695Z,11.25
2018-09-28T03:15:18.677Z,11.17
2018-09-28T03:16:18.654Z,11.22
2018-09-28T03:17:18.634Z,11.19
2018-09-28T03:18:18.615Z,11.10
2018-09-28T03:19:18.592Z,11.17
2018-09-28T03:20:18.572Z,11.15
2018-09-28T03:21:18.555Z,11.19
2018-09-28T03:22:18.523Z,11.14
2018-09-28T03:23:18.511Z,11.19
2018-09-28T03:24:18.487Z,11.17
2018-09-28T03:25:18.462Z,11.10
2018-09-28T03:26:18.456Z,11.06
2018-09-28T03:27:18.419Z,11.09
2018-09-28T03:28:18.399Z,11.15
2018-09-28T03:29:18.374Z,11.14
2018-09-28T03:30:18.355Z,11.15
2018-09-28T03:31:18.339Z,11.15
2018-09-28T03:32:18.321Z,11.19
2018-09-28T03:33:18.294Z,11.24
2018-09-28T03:34:18.269Z,11.15
2018-09-28T03:35:18.248Z,11.27
2018-09-28T03:36:18.228Z,11.18
2018-09-28T03:37:18.206Z,11.19
2018-09-28T03:38:18.187Z,11.19
2018-09-28T03:39:18.165Z,11.21
2018-09-28T03:40:18.145Z,11.25
2018-09-28T03:41:18.122Z,11.25
2018-09-28T03:42:18.111Z,11.27
2018-09-28T03:43:18.080Z,11.24
2018-09-28T03:44:18.063Z,11.18
2018-09-28T03:45:18.038Z,11.21
2018-09-28T03:46:18.018Z,11.22
2018-09-28T03:47:17.998Z,11.21
2018-09-28T03:48:17.979Z,11.27
2018-09-28T03:49:17.954Z,11.19
2018-09-28T03:50:17.936Z,11.22
2018-09-28T03:51:17.910Z,11.22
2018-09-28T03:52:17.891Z,11.24
2018-09-28T03:53:17.867Z,11.18
2018-09-28T03:54:17.852Z,11.15
2018-09-28T03:55:17.826Z,11.06
2018-09-28T03:56:17.803Z,11.07
2018-09-28T03:57:17.791Z,11.14
2018-09-28T03:58:17.771Z,11.11
2018-09-28T03:59:17.747Z,11.10
2018-09-28T04:00:17.721Z,11.11
2018-09-28T04:01:17.700Z,11.07
2018-09-28T04:02:17.679Z,11.07
2018-09-28T04:03:17.658Z,11.07
2018-09-28T04:04:17.638Z,11.10
2018-09-28T04:05:17.618Z,11.10
2018-09-28T04:06:17.589Z,11.09
2018-09-28T04:07:17.580Z,11.10
2018-09-28T04:08:17.546Z,11.09
2018-09-28T04:09:17.531Z,11.11
2018-09-28T04:10:17.509Z,11.10
2018-09-28T04:11:17.485Z,11.11
2018-09-28T04:12:17.473Z,11.10
2018-09-28T04:13:17.442Z,11.11
2018-09-28T04:14:17.421Z,11.17
2018-09-28T04:15:17.541Z,11.15
2018-09-28T04:16:17.381Z,11.14
2018-09-28T04:17:17.360Z,11.09
2018-09-28T04:18:17.336Z,11.17
2018-09-28T04:19:17.318Z,11.22
2018-09-28T04:20:17.303Z,11.22
2018-09-28T04:21:17.270Z,11.24
2018-09-28T04:22:17.253Z,11.21
2018-09-28T04:23:17.229Z,11.22
2018-09-28T04:24:17.232Z,11.32
2018-09-28T04:25:17.190Z,11.35
2018-09-28T04:26:17.170Z,11.35
2018-09-28T04:27:17.145Z,11.24
2018-09-28T04:28:17.122Z,11.27
2018-09-28T04:29:17.106Z,11.22
2018-09-28T04:30:17.081Z,11.27
2018-09-28T04:31:17.059Z,11.17
2018-09-28T04:32:17.045Z,11.25
2018-09-28T04:33:17.019Z,11.24
2018-09-28T04:34:16.993Z,11.17
2018-09-28T04:35:19.530Z,11.19
2018-09-28T04:36:16.953Z,11.18
2018-09-28T04:37:16.934Z,11.29
2018-09-28T04:38:16.910Z,11.18
2018-09-28T04:39:16.893Z,11.19
2018-09-28T04:40:16.866Z,11.24
2018-09-28T04:41:16.845Z,11.24
2018-09-28T04:42:16.821Z,11.21
2018-09-28T04:43:16.802Z,11.25
2018-09-28T04:44:16.785Z,11.24
2018-09-28T04:45:16.848Z,11.28
2018-09-28T04:46:16.743Z,11.28
2018-09-28T04:47:16.719Z,11.24
2018-09-28T04:48:16.700Z,11.36
2018-09-28T04:49:16.676Z,11.33
2018-09-28T04:50:16.655Z,11.37
2018-09-28T04:51:16.633Z,11.33
2018-09-28T04:52:16.608Z,11.52
2018-09-28T04:53:16.592Z,11.46
2018-09-28T04:54:16.569Z,11.47
2018-09-28T04:55:16.549Z,11.46
2018-09-28T04:56:16.526Z,11.46
2018-09-28T04:57:16.506Z,11.40
2018-09-28T04:58:16.483Z,11.43
2018-09-28T04:59:16.465Z,11.46
2018-09-28T05:00:16.439Z,11.46
2018-09-28T05:01:16.420Z,11.49
2018-09-28T05:02:16.397Z,11.43
2018-09-28T05:03:16.375Z,11.52
2018-09-28T05:04:16.357Z,11.55
2018-09-28T05:05:16.335Z,11.49
2018-09-28T05:06:16.311Z,11.64
2018-09-28T05:07:16.291Z,11.57
2018-09-28T05:08:16.269Z,11.67
2018-09-28T05:09:16.247Z,11.65
2018-09-28T05:10:16.227Z,11.67
2018-09-28T05:11:16.209Z,11.73
2018-09-28T05:12:16.185Z,11.70
2018-09-28T05:13:16.162Z,11.76
2018-09-28T05:14:16.179Z,11.88
2018-09-28T05:15:16.121Z,11.85
2018-09-28T05:16:16.099Z,11.90
2018-09-28T05:17:16.081Z,11.91
2018-09-28T05:18:16.057Z,12.05
2018-09-28T05:19:16.037Z,12.09
2018-09-28T05:20:16.012Z,12.04
2018-09-28T05:21:15.995Z,12.16
2018-09-28T05:22:15.973Z,12.19
2018-09-28T05:23:15.949Z,12.24
2018-09-28T05:24:15.927Z,12.23
2018-09-28T05:25:15.953Z,12.38
2018-09-28T05:26:15.886Z,12.46
2018-09-28T05:27:15.866Z,12.46
2018-09-28T05:28:15.849Z,12.53
2018-09-28T05:29:15.823Z,12.62
2018-09-28T05:30:15.805Z,12.60
2018-09-28T05:31:15.907Z,12.75
2018-09-28T05:32:15.974Z,12.79
2018-09-28T05:33:15.739Z,12.77
2018-09-28T05:34:15.717Z,12.90
2018-09-28T05:35:15.704Z,12.90
2018-09-28T05:36:15.684Z,13.04
2018-09-28T05:37:15.678Z,13.08
2018-09-28T05:38:15.638Z,13.12
2018-09-28T05:39:15.619Z,13.14
2018-09-28T05:40:15.592Z,13.23
2018-09-28T05:41:15.570Z,13.26
2018-09-28T05:42:15.553Z,13.30
2018-09-28T05:43:15.530Z,13.39
2018-09-28T05:44:15.531Z,13.49
2018-09-28T05:45:15.490Z,13.45
2018-09-28T05:46:15.508Z,13.48
2018-09-28T05:47:15.455Z,13.57
2018-09-28T05:48:15.430Z,13.63
2018-09-28T05:49:15.408Z,13.62
2018-09-28T05:50:15.385Z,13.63
2018-09-28T05:51:15.419Z,13.64
2018-09-28T05:52:15.342Z,13.67
2018-09-28T05:53:15.325Z,13.75
2018-09-28T05:54:15.306Z,13.79
2018-09-28T05:55:15.292Z,13.69
2018-09-28T05:56:15.261Z,13.84
2018-09-28T05:57:15.246Z,13.85
2018-09-28T05:58:15.225Z,13.87
2018-09-28T05:59:15.202Z,13.91
2018-09-28T06:00:15.181Z,13.89
2018-09-28T06:01:15.157Z,13.99
2018-09-28T06:02:15.147Z,13.96
2018-09-28T06:03:15.117Z,13.95
2018-09-28T06:04:15.107Z,14.07
2018-09-28T06:05:15.081Z,14.06
2018-09-28T06:06:15.062Z,14.03
2018-09-28T06:07:15.047Z,14.04
2018-09-28T06:08:15.021Z,14.18
2018-09-28T06:09:15.006Z,14.20
2018-09-28T06:10:14.981Z,14.18
2018-09-28T06:11:14.966Z,14.14
2018-09-28T06:12:14.937Z,14.10
2018-09-28T06:13:14.919Z,14.20
2018-09-28T06:14:14.898Z,14.24
2018-09-28T06:15:14.876Z,14.22
2018-09-28T06:16:14.859Z,14.20
2018-09-28T06:17:14.840Z,14.18
2018-09-28T06:19:14.821Z,14.28
2018-09-28T06:20:14.775Z,14.33
2018-09-28T06:21:14.756Z,14.32
2018-09-28T06:22:14.730Z,14.32
2018-09-28T06:23:14.713Z,14.33
2018-09-28T06:24:14.814Z,14.43
2018-09-28T06:25:14.674Z,14.39
2018-09-28T06:26:14.655Z,14.36
2018-09-28T06:27:14.628Z,14.37
2018-09-28T06:28:14.617Z,14.42
2018-09-28T06:29:14.595Z,14.43
2018-09-28T06:30:14.608Z,14.42
2018-09-28T06:31:14.550Z,14.42
2018-09-28T06:32:14.542Z,14.42
2018-09-28T06:33:14.513Z,14.54
2018-09-28T06:34:14.493Z,14.43
2018-09-28T06:35:14.471Z,14.45
2018-09-28T06:36:14.465Z,14.47
2018-09-28T06:37:14.431Z,14.46
2018-09-28T06:38:14.414Z,14.62
2018-09-28T06:39:14.390Z,14.62
2018-09-28T06:40:14.374Z,14.70
2018-09-28T06:41:14.352Z,14.62
2018-09-28T06:42:14.365Z,14.72
2018-09-28T06:43:14.310Z,14.64
2018-09-28T06:44:14.292Z,14.68
2018-09-28T06:45:14.270Z,14.62
2018-09-28T06:46:14.258Z,14.70
2018-09-28T06:47:14.235Z,14.75
2018-09-28T06:48:14.294Z,14.77
2018-09-28T06:49:14.197Z,14.73
2018-09-28T06:50:14.177Z,14.78
2018-09-28T06:51:14.214Z,14.72
2018-09-28T06:52:14.135Z,14.77
2018-09-28T06:53:14.120Z,14.86
2018-09-28T06:54:14.155Z,14.81
2018-09-28T06:55:14.075Z,14.94
2018-09-28T06:56:14.061Z,14.96
2018-09-28T06:57:14.034Z,14.96
2018-09-28T06:58:14.063Z,14.96
2018-09-28T06:59:13.997Z,15.01
2018-09-28T07:00:14.040Z,15.02
2018-09-28T07:01:13.959Z,15.01
2018-09-28T07:02:13.935Z,14.95
2018-09-28T07:03:13.921Z,14.88
2018-09-28T07:04:13.910Z,14.92
2018-09-28T07:05:13.881Z,15.03
2018-09-28T07:06:13.894Z,15.14
2018-09-28T07:07:13.840Z,15.21
2018-09-28T07:08:13.823Z,15.28
2018-09-28T07:09:13.826Z,15.36
2018-09-28T07:10:13.783Z,15.54
2018-09-28T07:11:13.760Z,15.62
2018-09-28T07:12:13.755Z,15.84
2018-09-28T07:13:13.723Z,15.97
2018-09-28T07:14:13.706Z,16.20
2018-09-28T07:15:13.691Z,16.28
2018-09-28T07:16:13.700Z,16.42
2018-09-28T07:17:13.648Z,16.48
2018-09-28T07:18:13.649Z,16.48
2018-09-28T07:19:13.618Z,16.52
2018-09-28T07:20:13.597Z,16.52
2018-09-28T07:21:13.570Z,16.61
2018-09-28T07:22:13.550Z,16.61
2018-09-28T07:23:13.536Z,16.67
2018-09-28T07:24:13.526Z,16.81
2018-09-28T07:25:13.537Z,16.97
2018-09-28T07:26:13.476Z,17.00
2018-09-28T07:27:13.460Z,16.86
2018-09-28T07:28:13.439Z,16.91
2018-09-28T07:29:13.427Z,16.94
2018-09-28T07:30:13.427Z,16.88
2018-09-28T07:31:13.382Z,17.16
2018-09-28T07:32:13.370Z,17.48
2018-09-28T07:33:13.348Z,17.58
2018-09-28T07:34:13.330Z,17.97
2018-09-28T07:35:13.308Z,18.39
2018-09-28T07:36:13.340Z,18.66
2018-09-28T07:37:13.560Z,18.91
2018-09-28T07:38:13.258Z,19.00
2018-09-28T07:39:13.241Z,19.21
2018-09-28T07:40:13.221Z,19.29
2018-09-28T07:41:13.212Z,19.29
2018-09-28T07:42:13.217Z,19.39
2018-09-28T07:43:13.167Z,19.62
2018-09-28T07:44:13.152Z,19.69
2018-09-28T07:45:13.134Z,19.65
2018-09-28T07:46:13.114Z,19.55
2018-09-28T07:47:13.098Z,19.50
2018-09-28T07:48:13.096Z,19.55
2018-09-28T07:49:13.133Z,19.37
2018-09-28T07:50:13.044Z,19.28
2018-09-28T07:51:13.030Z,19.06
2018-09-28T07:52:13.014Z,18.92
2018-09-28T07:53:12.994Z,18.85
2018-09-28T07:54:12.974Z,18.75
2018-09-28T07:55:12.963Z,18.66
2018-09-28T07:56:12.945Z,18.69
2018-09-28T07:57:12.927Z,18.81
2018-09-28T07:58:12.911Z,18.90
2018-09-28T07:59:12.896Z,18.94
2018-09-28T08:00:12.878Z,19.21
2018-09-28T08:01:12.860Z,19.33
2018-09-28T08:02:12.844Z,19.51
2018-09-28T08:03:12.829Z,19.71
2018-09-28T08:04:12.816Z,19.92
2018-09-28T08:05:12.794Z,20.18
2018-09-28T08:06:12.781Z,20.08
2018-09-28T08:07:12.764Z,20.28
2018-09-28T08:08:12.746Z,20.31
2018-09-28T08:09:12.734Z,20.38
2018-09-28T08:10:12.715Z,20.48
2018-09-28T08:11:12.710Z,20.48
2018-09-28T08:12:12.683Z,20.59
2018-09-28T08:13:12.668Z,20.80
2018-09-28T08:14:12.657Z,20.97
2018-09-28T08:15:12.641Z,21.07
2018-09-28T08:16:12.623Z,21.12
2018-09-28T08:17:12.614Z,20.97
2018-09-28T08:18:12.603Z,21.12
2018-09-28T08:19:12.585Z,21.27
2018-09-28T08:20:12.564Z,21.34
2018-09-28T08:21:12.548Z,21.38
2018-09-28T08:22:12.529Z,21.47
2018-09-28T08:23:12.577Z,21.54
2018-09-28T08:24:12.504Z,21.54
2018-09-28T08:25:12.492Z,21.49
2018-09-28T08:26:12.489Z,21.28
2018-09-28T08:27:12.460Z,21.03
2018-09-28T08:28:12.454Z,20.73
2018-09-28T08:29:12.441Z,20.57
2018-09-28T08:30:12.420Z,20.32
2018-09-28T08:31:12.427Z,20.41
2018-09-28T08:32:12.395Z,20.23
2018-09-28T08:33:12.386Z,20.28
2018-09-28T08:34:12.363Z,20.41
2018-09-28T08:35:12.357Z,20.42
2018-09-28T08:36:12.337Z,20.41
2018-09-28T08:37:12.323Z,20.41
2018-09-28T08:38:12.308Z,20.48
2018-09-28T08:39:12.291Z,20.52
2018-09-28T08:40:12.276Z,20.62
2018-09-28T08:41:12.262Z,20.73
2018-09-28T08:42:12.252Z,20.95
2018-09-28T08:43:12.238Z,21.17
2018-09-28T08:44:12.221Z,20.98
2018-09-28T08:45:12.210Z,20.94
2018-09-28T08:46:12.192Z,20.85
2018-09-28T08:47:12.182Z,20.73
2018-09-28T08:48:12.167Z,20.91
2018-09-28T08:49:12.177Z,20.91
2018-09-28T08:50:12.135Z,20.94
2018-09-28T08:51:12.124Z,20.95
2018-09-28T08:52:12.113Z,21.10
2018-09-28T08:53:12.093Z,21.22
2018-09-28T08:54:12.088Z,21.28
2018-09-28T08:55:12.066Z,21.49
2018-09-28T08:56:12.056Z,21.68
2018-09-28T08:57:12.040Z,21.83
2018-09-28T08:58:12.028Z,21.82
2018-09-28T08:59:12.015Z,21.80
2018-09-28T09:00:12.002Z,21.62
2018-09-28T09:01:11.988Z,21.65
2018-09-28T09:02:12.035Z,21.67
2018-09-28T09:03:11.954Z,21.59
2018-09-28T09:04:11.941Z,21.42
2018-09-28T09:05:11.925Z,21.34
2018-09-28T09:06:11.919Z,21.27
2018-09-28T09:07:11.901Z,21.12
2018-09-28T09:08:11.890Z,21.01
2018-09-28T09:09:11.875Z,20.94
2018-09-28T09:10:11.860Z,20.94
2018-09-28T09:11:11.851Z,20.80
2018-09-28T09:12:11.835Z,20.89
2018-09-28T09:13:11.819Z,20.89
2018-09-28T09:14:11.810Z,20.67
2018-09-28T09:15:11.794Z,20.66
2018-09-28T09:16:11.787Z,20.59
2018-09-28T09:17:11.765Z,20.52
2018-09-28T09:18:11.938Z,20.38
2018-09-28T09:19:11.740Z,20.42
2018-09-28T09:20:11.726Z,20.64
2018-09-28T09:21:11.710Z,20.84
2018-09-28T09:22:11.700Z,21.21
2018-09-28T09:23:11.688Z,21.34
2018-09-28T09:24:11.674Z,21.43
2018-09-28T09:25:11.660Z,21.83
2018-09-28T09:26:11.647Z,22.15
2018-09-28T09:27:11.632Z,22.42
2018-09-28T09:28:11.623Z,22.46
2018-09-28T09:29:11.612Z,22.57
2018-09-28T09:30:11.652Z,22.76
2018-09-28T09:31:11.582Z,22.83
2018-09-28T09:32:11.566Z,22.72
2018-09-28T09:33:11.560Z,22.58
2018-09-28T09:34:11.544Z,22.49
2018-09-28T09:35:11.529Z,22.46
2018-09-28T09:36:11.517Z,22.45
2018-09-28T09:37:11.505Z,22.36
2018-09-28T09:38:11.491Z,22.22
2018-09-28T09:39:11.480Z,22.10
2018-09-28T09:40:11.469Z,21.91
2018-09-28T09:41:11.453Z,21.84
2018-09-28T09:42:11.438Z,21.77
2018-09-28T09:43:11.426Z,21.74
2018-09-28T09:44:11.416Z,21.68
2018-09-28T09:45:11.407Z,21.61
2018-09-28T09:46:11.392Z,21.49
2018-09-28T09:47:11.381Z,21.43
2018-09-28T09:48:11.367Z,21.17
2018-09-28T09:49:11.354Z,21.01
2018-09-28T09:50:11.342Z,20.94
2018-09-28T09:51:11.338Z,21.10
2018-09-28T09:52:11.320Z,21.28
2018-09-28T09:53:11.302Z,21.56
2018-09-28T09:54:11.294Z,21.82
2018-09-28T09:55:11.279Z,21.94
2018-09-28T09:56:11.281Z,22.10
2018-09-28T09:57:11.260Z,22.24
2018-09-28T09:58:11.259Z,22.33
2018-09-28T09:59:11.234Z,22.47
2018-09-28T10:00:11.214Z,22.39
2018-09-28T10:01:11.209Z,22.80
2018-09-28T10:02:11.199Z,23.22
2018-09-28T10:03:11.190Z,23.35
2018-09-28T10:04:11.172Z,23.54
2018-09-28T10:05:11.156Z,23.84
2018-09-28T10:06:11.146Z,23.55
2018-09-28T10:07:11.134Z,23.47
2018-09-28T10:08:11.121Z,23.50
2018-09-28T10:09:11.117Z,23.50
2018-09-28T10:10:11.100Z,23.63
2018-09-28T10:11:11.106Z,23.84
2018-09-28T10:12:11.136Z,23.87
2018-09-28T10:13:11.064Z,23.97
2018-09-28T10:14:11.052Z,24.12
2018-09-28T10:15:11.050Z,24.09
2018-09-28T10:16:11.035Z,24.28
2018-09-28T10:17:11.019Z,24.77
2018-09-28T10:18:11.012Z,24.90
2018-09-28T10:19:11.052Z,24.90
2018-09-28T10:20:10.990Z,25.05
2018-09-28T10:21:10.989Z,25.18
2018-09-28T10:22:10.969Z,25.30
2018-09-28T10:23:10.958Z,25.43
2018-09-28T10:24:10.948Z,25.20
2018-09-28T10:25:10.941Z,25.42
2018-09-28T10:26:10.928Z,25.69
2018-09-28T10:27:10.923Z,26.01
2018-09-28T10:28:10.984Z,26.17
2018-09-28T10:29:10.900Z,26.51
2018-09-28T10:30:10.884Z,26.65
2018-09-28T10:31:10.882Z,26.77
2018-09-28T10:32:10.869Z,26.47
2018-09-28T10:33:10.864Z,26.32
2018-09-28T10:34:10.878Z,26.29
2018-09-28T10:35:10.842Z,26.39
2018-09-28T10:36:10.832Z,26.29
2018-09-28T10:37:10.831Z,26.21
2018-09-28T10:38:10.825Z,26.51
2018-09-28T10:39:10.832Z,26.88
2018-09-28T10:40:10.813Z,27.17
2018-09-28T10:41:10.816Z,27.55
2018-09-28T10:42:10.780Z,27.39
2018-09-28T10:43:10.776Z,26.89
2018-09-28T10:44:10.766Z,27.06
2018-09-28T10:45:10.812Z,27.13
2018-09-28T10:46:10.752Z,27.43
2018-09-28T10:47:10.762Z,27.75
2018-09-28T10:48:10.734Z,27.78
2018-09-28T10:49:10.728Z,27.41
2018-09-28T10:50:10.722Z,27.70
2018-09-28T10:51:10.760Z,27.87
2018-09-28T10:52:10.932Z,28.27
2018-09-28T10:53:10.779Z,28.37
2018-09-28T10:54:10.692Z,28.59
2018-09-28T10:55:10.688Z,28.76
2018-09-28T10:56:10.679Z,28.89
2018-09-28T10:57:10.675Z,29.27
2018-09-28T10:58:10.667Z,29.33
2018-09-28T10:59:10.660Z,29.31
2018-09-28T11:00:10.657Z,29.45
2018-09-28T11:01:10.644Z,29.64
2018-09-28T11:02:10.642Z,29.74
2018-09-28T11:03:10.643Z,29.89
2018-09-28T11:04:10.650Z,29.85
2018-09-28T11:05:10.622Z,29.76
2018-09-28T11:06:10.614Z,30.04
2018-09-28T11:07:10.607Z,30.17
2018-09-28T11:08:10.609Z,30.61
2018-09-28T11:09:10.621Z,30.88
2018-09-28T11:10:10.624Z,31.09
2018-09-28T11:11:10.588Z,31.38
2018-09-28T11:12:10.582Z,31.56
2018-09-28T11:13:10.576Z,31.34
2018-09-28T11:14:10.571Z,31.29
2018-09-28T11:15:10.609Z,31.51
2018-09-28T11:16:10.600Z,31.46
2018-09-28T11:17:10.553Z,31.50
2018-09-28T11:18:10.553Z,31.63
2018-09-28T11:19:10.552Z,31.89
2018-09-28T11:20:10.537Z,31.88
2018-09-28T11:21:10.585Z,31.99
2018-09-28T11:22:10.525Z,32.28
2018-09-28T11:23:10.520Z,32.56
2018-09-28T11:24:10.517Z,33.11
2018-09-28T11:25:10.516Z,33.39
2018-09-28T11:26:10.505Z,33.45
2018-09-28T11:27:10.572Z,33.38
2018-09-28T11:28:10.498Z,33.11
2018-09-28T11:29:10.493Z,32.96
2018-09-28T11:30:10.493Z,32.69
2018-09-28T11:31:10.485Z,32.85
2018-09-28T11:32:10.481Z,32.26
2018-09-28T11:33:10.494Z,31.72
2018-09-28T11:34:10.473Z,31.65
2018-09-28T11:35:10.465Z,31.93
2018-09-28T11:36:10.466Z,32.30
2018-09-28T11:37:10.459Z,32.50
2018-09-28T11:38:10.458Z,32.84
2018-09-28T11:39:10.469Z,32.77
2018-09-28T11:40:10.445Z,32.70
2018-09-28T11:41:10.445Z,32.25
2018-09-28T11:42:10.438Z,32.26
2018-09-28T11:43:10.489Z,32.22
2018-09-28T11:44:10.437Z,32.01
2018-09-28T11:45:10.453Z,31.86
2018-09-28T11:46:10.426Z,32.11
2018-09-28T11:47:10.420Z,32.44
2018-09-28T11:48:10.418Z,32.56
2018-09-28T11:49:10.494Z,32.97
2018-09-28T11:50:10.415Z,33.38
2018-09-28T11:51:10.410Z,33.59
2018-09-28T11:52:10.405Z,33.79
2018-09-28T11:53:10.401Z,34.10
2018-09-28T11:54:10.401Z,34.27
2018-09-28T11:55:10.401Z,34.53
2018-09-28T11:56:10.391Z,34.66
2018-09-28T11:57:10.462Z,34.73
2018-09-28T11:58:10.381Z,34.49
2018-09-28T11:59:10.383Z,34.46
2018-09-28T12:00:10.386Z,33.60
2018-09-28T12:01:10.371Z,33.54
2018-09-28T12:02:10.372Z,33.37
2018-09-28T12:03:10.436Z,33.49
2018-09-28T12:04:10.374Z,33.59
2018-09-28T12:05:10.410Z,33.38
2018-09-28T12:06:10.431Z,33.34
2018-09-28T12:07:10.424Z,33.37
2018-09-28T12:08:10.357Z,33.51
2018-09-28T12:09:10.361Z,33.59
2018-09-28T12:10:10.352Z,33.51
2018-09-28T12:11:10.351Z,33.72
2018-09-28T12:12:10.462Z,33.87
2018-09-28T12:13:10.345Z,34.21
2018-09-28T12:14:10.342Z,34.28
2018-09-28T12:15:10.351Z,33.86
2018-09-28T12:16:10.346Z,33.47
2018-09-28T12:17:10.334Z,32.75
2018-09-28T12:18:10.400Z,32.22
2018-09-28T12:19:10.329Z,32.11
2018-09-28T12:20:10.325Z,31.88
2018-09-28T12:21:10.392Z,31.26
2018-09-28T12:22:10.325Z,31.10
2018-09-28T12:23:10.317Z,30.86
2018-09-28T12:24:10.347Z,30.65
2018-09-28T12:25:10.317Z,30.20
2018-09-28T12:26:10.310Z,29.80
2018-09-28T12:27:10.358Z,29.45
2018-09-28T12:28:10.303Z,29.24
2018-09-28T12:29:10.306Z,28.95
2018-09-28T12:30:10.325Z,28.34
2018-09-28T12:31:10.293Z,28.24
2018-09-28T12:32:10.290Z,27.92
2018-09-28T12:33:10.304Z,27.59
2018-09-28T12:34:10.328Z,27.43
2018-09-28T12:35:10.279Z,26.97
2018-09-28T12:36:10.341Z,26.54
2018-09-28T12:37:10.269Z,26.18
2018-09-28T12:38:10.273Z,26.09
2018-09-28T12:39:10.321Z,25.88
2018-09-28T12:40:10.264Z,25.54
2018-09-28T12:41:10.259Z,25.14
2018-09-28T12:42:10.287Z,24.80
2018-09-28T12:43:10.247Z,24.65
2018-09-28T12:44:10.306Z,24.42
2018-09-28T12:45:10.289Z,24.28
2018-09-28T12:46:10.231Z,24.09
2018-09-28T12:47:10.225Z,24.06
2018-09-28T12:48:10.268Z,23.91
2018-09-28T12:49:10.214Z,23.83
2018-09-28T12:50:10.219Z,23.66
2018-09-28T12:51:10.207Z,23.53
2018-09-28T12:52:10.195Z,23.43
2018-09-28T12:53:10.188Z,23.31